createdAt,value
2023-03-08T00:02:23.008Z,6.80
2023-03-08T00:04:50.604Z,7.07
2023-03-08T00:07:18.136Z,7.47
2023-03-08T00:09:46.951Z,5.63
2023-03-08T00:12:14.422Z,6.97
2023-03-08T00:14:42.067Z,6.07
2023-03-08T00:17:09.568Z,4.97
2023-03-08T00:19:37.224Z,7.30
2023-03-08T00:22:04.689Z,6.50
2023-03-08T00:24:32.228Z,6.63
2023-03-08T00:27:01.294Z,6.10
2023-03-08T00:29:28.776Z,6.53
2023-03-08T00:31:56.273Z,8.33
2023-03-08T00:34:23.833Z,6.33
2023-03-08T00:36:51.305Z,7.53
2023-03-08T00:39:18.796Z,4.80
2023-03-08T00:41:46.268Z,5.97
2023-03-08T00:44:15.067Z,7.53
2023-03-08T00:46:42.620Z,8.13
2023-03-08T00:49:10.599Z,7.57
2023-03-08T00:51:38.110Z,5.93
2023-03-08T00:54:05.800Z,9.23
2023-03-08T00:56:33.257Z,6.90
2023-03-08T00:59:00.745Z,7.13
2023-03-08T01:01:29.565Z,5.23
2023-03-08T01:03:57.047Z,8.10
2023-03-08T01:06:24.664Z,6.23
2023-03-08T01:08:52.408Z,8.43
2023-03-08T01:11:22.295Z,5.83
2023-03-08T01:13:51.163Z,6.40
2023-03-08T01:16:20.537Z,5.97
2023-03-08T01:18:49.843Z,5.93
2023-03-08T01:21:17.789Z,5.10
2023-03-08T01:23:45.321Z,5.50
2023-03-08T01:26:14.973Z,5.37
2023-03-08T01:28:42.863Z,6.67
2023-03-08T01:31:14.134Z,5.70
2023-03-08T01:33:42.472Z,7.97
2023-03-08T01:36:14.873Z,6.43
2023-03-08T01:38:43.075Z,6.73
2023-03-08T01:41:16.197Z,6.00
2023-03-08T01:43:43.642Z,6.97
2023-03-08T01:46:25.228Z,6.67
2023-03-08T01:48:56.818Z,5.07
2023-03-08T01:51:33.916Z,5.70
2023-03-08T01:54:05.229Z,7.13
2023-03-08T01:56:33.428Z,6.87
2023-03-08T01:59:02.386Z,5.33
2023-03-08T02:01:30.131Z,6.67
2023-03-08T02:03:57.669Z,6.13
2023-03-08T02:06:25.161Z,6.27
2023-03-08T02:08:54.107Z,5.93
2023-03-08T02:11:23.500Z,9.07
2023-03-08T02:13:52.014Z,7.90
2023-03-08T02:16:19.739Z,5.47
2023-03-08T02:18:55.112Z,9.43
2023-03-08T02:21:23.583Z,6.57
2023-03-08T02:23:52.454Z,6.90
2023-03-08T02:26:20.366Z,6.60
2023-03-08T02:28:47.983Z,6.73
2023-03-08T02:31:16.477Z,8.27
2023-03-08T02:33:44.018Z,7.53
2023-03-08T02:36:11.976Z,7.80
2023-03-08T02:38:39.633Z,7.57
2023-03-08T02:41:08.519Z,6.53
2023-03-08T02:43:36.000Z,8.33
2023-03-08T02:46:03.492Z,6.00
2023-03-08T02:48:30.960Z,8.13
2023-03-08T02:50:58.438Z,7.17
2023-03-08T02:53:25.920Z,6.13
2023-03-08T02:55:53.428Z,7.57
2023-03-08T02:58:22.265Z,6.73
2023-03-08T03:00:49.792Z,6.90
2023-03-08T03:03:18.358Z,9.70
2023-03-08T03:05:46.130Z,8.67
2023-03-08T03:08:13.754Z,9.77
2023-03-08T03:10:41.668Z,9.27
2023-03-08T03:13:09.430Z,7.30
2023-03-08T03:15:40.550Z,9.33
2023-03-08T03:18:08.482Z,12.67
2023-03-08T03:20:36.009Z,14.60
2023-03-08T03:23:03.600Z,12.03
2023-03-08T03:25:31.293Z,17.57
2023-03-08T03:27:58.787Z,17.93
2023-03-08T03:30:26.302Z,18.33
2023-03-08T03:32:55.162Z,21.43
2023-03-08T03:35:22.693Z,26.03
2023-03-08T03:37:50.182Z,34.57
2023-03-08T03:40:18.058Z,30.60
2023-03-08T03:42:45.534Z,33.67
2023-03-08T03:45:12.990Z,33.43
2023-03-08T03:47:40.489Z,32.67
2023-03-08T03:50:10.962Z,30.07
2023-03-08T03:52:38.450Z,34.63
2023-03-08T03:55:07.376Z,28.60
2023-03-08T03:57:34.888Z,29.77
2023-03-08T04:00:02.381Z,26.90
2023-03-08T04:02:30.198Z,33.43
2023-03-08T04:04:57.718Z,30.13
2023-03-08T04:07:26.556Z,38.73
2023-03-08T04:09:54.066Z,41.53
2023-03-08T04:12:23.742Z,32.43
2023-03-08T04:14:51.216Z,37.23
2023-03-08T04:17:18.750Z,37.57
2023-03-08T04:19:46.258Z,45.03
2023-03-08T04:22:13.738Z,41.43
2023-03-08T04:24:42.553Z,37.17
2023-03-08T04:27:10.092Z,38.10
2023-03-08T04:29:37.544Z,45.33
2023-03-08T04:32:05.717Z,45.50
2023-03-08T04:34:33.221Z,45.13
2023-03-08T04:37:00.700Z,43.93
2023-03-08T04:39:28.278Z,46.73
2023-03-08T04:41:57.163Z,45.20
2023-03-08T04:44:24.666Z,47.90
2023-03-08T04:46:52.209Z,46.73
2023-03-08T04:49:19.714Z,48.47
2023-03-08T04:51:47.196Z,45.60
2023-03-08T04:54:14.657Z,42.83
2023-03-08T04:56:42.508Z,42.73
2023-03-08T04:59:11.302Z,36.37
2023-03-08T05:01:38.827Z,39.60
2023-03-08T05:04:06.454Z,39.63
2023-03-08T05:06:33.958Z,40.67
2023-03-08T05:09:01.572Z,39.40
2023-03-08T05:11:30.457Z,33.37
2023-03-08T05:14:00.159Z,35.87
2023-03-08T05:16:29.322Z,37.30
2023-03-08T05:18:56.870Z,30.30
2023-03-08T05:21:24.601Z,33.83
2023-03-08T05:23:52.105Z,33.53
2023-03-08T05:26:19.660Z,34.33
2023-03-08T05:28:47.133Z,30.67
2023-03-08T05:31:16.681Z,41.03
2023-03-08T05:33:47.094Z,33.20
2023-03-08T05:36:15.491Z,29.90
2023-03-08T05:38:43.723Z,35.53
2023-03-08T05:41:14.141Z,36.23
2023-03-08T05:43:41.664Z,38.80
2023-03-08T05:46:11.870Z,39.80
2023-03-08T05:48:40.211Z,41.70
2023-03-08T05:51:11.310Z,41.03
2023-03-08T05:53:39.314Z,36.83
2023-03-08T05:56:11.342Z,44.03
2023-03-08T05:58:39.448Z,30.80
2023-03-08T06:01:13.236Z,34.43
2023-03-08T06:03:41.098Z,37.17
2023-03-08T06:06:10.072Z,34.90
2023-03-08T06:08:37.650Z,33.57
2023-03-08T06:11:05.520Z,34.73
2023-03-08T06:13:32.975Z,37.70
2023-03-08T06:16:01.380Z,28.17
2023-03-08T06:18:29.536Z,43.53
2023-03-08T06:20:58.869Z,34.43
2023-03-08T06:23:28.590Z,37.13
2023-03-08T06:25:56.555Z,34.97
2023-03-08T06:28:24.545Z,31.97
2023-03-08T06:30:52.478Z,32.67
2023-03-08T06:33:20.841Z,31.13
2023-03-08T06:35:57.193Z,21.43
2023-03-08T06:38:25.096Z,22.97
2023-03-08T06:40:54.170Z,26.37
2023-03-08T06:43:22.159Z,28.33
2023-03-08T06:45:50.114Z,22.17
2023-03-08T06:48:18.180Z,18.20
2023-03-08T06:50:46.158Z,19.97
2023-03-08T06:53:14.150Z,14.80
2023-03-08T06:55:42.916Z,19.23
2023-03-08T06:58:11.722Z,13.93
2023-03-08T07:00:39.555Z,13.40
2023-03-08T07:03:07.234Z,12.63
2023-03-08T07:05:34.679Z,16.13
2023-03-08T07:08:02.123Z,15.83
2023-03-08T07:10:29.733Z,12.80
2023-03-08T07:12:57.322Z,18.20
2023-03-08T07:15:26.438Z,14.90
2023-03-08T07:17:56.497Z,14.10
2023-03-08T07:20:25.478Z,16.50
2023-03-08T07:22:53.428Z,13.93
2023-03-08T07:25:22.069Z,15.17
2023-03-08T07:27:49.637Z,13.83
2023-03-08T07:30:17.997Z,16.70
2023-03-08T07:32:46.952Z,14.23
2023-03-08T07:35:16.146Z,12.57
2023-03-08T07:37:45.956Z,10.57
2023-03-08T07:40:14.983Z,11.80
2023-03-08T07:42:42.460Z,10.87
2023-03-08T07:45:11.887Z,12.10
2023-03-08T07:47:40.458Z,12.90
2023-03-08T07:50:10.895Z,11.73
2023-03-08T07:52:38.428Z,10.43
2023-03-08T07:55:07.011Z,10.57
2023-03-08T07:57:34.541Z,12.27
2023-03-08T08:00:01.999Z,11.17
2023-03-08T08:02:29.451Z,11.87
2023-03-08T08:04:57.004Z,10.87
2023-03-08T08:07:25.875Z,12.70
2023-03-08T08:09:53.400Z,10.43
2023-03-08T08:12:20.870Z,13.20
2023-03-08T08:14:48.408Z,9.97
2023-03-08T08:17:15.884Z,10.80
2023-03-08T08:19:43.372Z,11.47
2023-03-08T08:22:10.922Z,11.90
2023-03-08T08:24:39.717Z,12.57
2023-03-08T08:27:07.261Z,14.90
2023-03-08T08:29:34.762Z,11.07
2023-03-08T08:32:04.154Z,12.87
2023-03-08T08:34:31.618Z,11.57
2023-03-08T08:36:59.143Z,14.97
2023-03-08T08:39:26.662Z,13.47
2023-03-08T08:41:55.467Z,14.40
2023-03-08T08:44:23.022Z,14.10
2023-03-08T08:46:50.506Z,11.93
2023-03-08T08:49:17.962Z,13.80
2023-03-08T08:51:45.520Z,14.37
2023-03-08T08:54:13.018Z,13.93
2023-03-08T08:56:42.896Z,12.23
2023-03-08T08:59:13.157Z,11.67
2023-03-08T09:01:43.657Z,11.97
2023-03-08T09:04:12.088Z,14.40
2023-03-08T09:06:40.596Z,17.00
2023-03-08T09:09:08.110Z,17.70
2023-03-08T09:11:48.495Z,30.57
2023-03-08T09:14:22.557Z,47.37
2023-03-08T09:16:50.184Z,58.07
2023-03-08T09:19:17.732Z,57.30
2023-03-08T09:21:45.218Z,66.10
2023-03-08T09:24:13.177Z,67.73
2023-03-08T09:26:40.695Z,67.57
2023-03-08T09:29:08.230Z,49.33
2023-03-08T09:31:38.849Z,25.87
2023-03-08T09:34:08.881Z,17.00
2023-03-08T09:36:39.356Z,39.17
2023-03-08T09:39:08.750Z,44.97
2023-03-08T09:41:46.215Z,59.00
2023-03-08T09:44:26.877Z,65.97
2023-03-08T09:47:00.596Z,26.60
2023-03-08T09:49:30.584Z,21.57
2023-03-08T09:52:03.756Z,19.83
2023-03-08T09:54:38.129Z,18.37
2023-03-08T09:57:11.365Z,21.60
2023-03-08T09:59:42.460Z,16.67
2023-03-08T10:02:25.915Z,19.33
2023-03-08T10:05:12.834Z,20.07
2023-03-08T10:07:53.806Z,20.77
2023-03-08T10:10:34.372Z,19.17
2023-03-08T10:13:16.673Z,19.87
2023-03-08T10:15:48.103Z,19.80
2023-03-08T10:18:29.254Z,17.73
2023-03-08T10:20:59.090Z,20.43
2023-03-08T10:23:31.373Z,22.43
2023-03-08T10:25:59.944Z,18.77
2023-03-08T10:28:28.415Z,21.50
2023-03-08T10:30:58.441Z,22.37
2023-03-08T10:33:33.364Z,22.30
2023-03-08T10:36:03.695Z,20.57
2023-03-08T10:38:34.169Z,23.13
2023-03-08T10:41:03.671Z,20.90
2023-03-08T10:43:34.042Z,22.57
2023-03-08T10:46:04.373Z,25.43
2023-03-08T10:48:33.775Z,22.60
2023-03-08T10:51:02.682Z,21.97
2023-03-08T10:53:30.626Z,21.57
2023-03-08T10:56:00.041Z,21.97
2023-03-08T10:58:31.738Z,22.47
2023-03-08T11:01:01.191Z,18.90
2023-03-08T11:03:29.557Z,24.97
2023-03-08T11:06:00.581Z,21.73
2023-03-08T11:08:30.600Z,20.90
2023-03-08T11:11:15.743Z,15.27
2023-03-08T11:13:46.549Z,15.87
2023-03-08T11:16:39.821Z,17.67
2023-03-08T11:19:17.348Z,19.00
2023-03-08T11:22:00.037Z,18.87
2023-03-08T11:24:41.085Z,16.63
2023-03-08T11:27:21.645Z,17.17
2023-03-08T11:30:03.832Z,15.43
2023-03-08T11:32:44.990Z,16.37
2023-03-08T11:35:23.187Z,18.37
2023-03-08T11:37:59.611Z,16.17
2023-03-08T11:40:30.677Z,19.00
2023-03-08T11:43:18.792Z,19.30
2023-03-08T11:45:53.668Z,18.83
2023-03-08T11:48:56.687Z,22.53
2023-03-08T11:51:31.022Z,20.23
2023-03-08T11:54:12.401Z,20.90
2023-03-08T11:56:47.079Z,20.03
2023-03-08T11:59:20.761Z,21.30
2023-03-08T12:01:51.211Z,22.23
2023-03-08T12:04:23.440Z,25.13
2023-03-08T12:06:54.682Z,22.20
2023-03-08T12:09:30.669Z,18.47
2023-03-08T12:12:04.542Z,22.57
2023-03-08T12:14:35.305Z,22.73
2023-03-08T12:17:12.002Z,20.67
2023-03-08T12:19:43.798Z,27.07
2023-03-08T12:22:24.415Z,23.23
2023-03-08T12:25:00.184Z,23.63
2023-03-08T12:27:31.834Z,26.70
2023-03-08T12:30:05.580Z,22.80
2023-03-08T12:32:37.718Z,24.10
2023-03-08T12:35:08.470Z,20.43
2023-03-08T12:37:36.109Z,25.10
2023-03-08T12:40:11.234Z,24.90
2023-03-08T12:42:40.554Z,27.60
2023-03-08T12:45:30.763Z,25.23
2023-03-08T12:48:08.803Z,27.03
2023-03-08T12:50:41.777Z,22.70
2023-03-08T12:53:31.384Z,25.77
2023-03-08T12:56:03.246Z,27.50
2023-03-08T12:58:31.744Z,25.70
2023-03-08T13:01:01.907Z,23.17
2023-03-08T13:03:37.217Z,22.80
2023-03-08T13:06:16.657Z,25.90
2023-03-08T13:08:52.863Z,25.17
2023-03-08T13:11:25.257Z,26.67
2023-03-08T13:13:57.167Z,24.70
2023-03-08T13:16:35.152Z,25.33
2023-03-08T13:19:17.272Z,22.90
2023-03-08T13:21:50.240Z,25.13
2023-03-08T13:24:26.023Z,25.57
2023-03-08T13:27:07.121Z,25.30
2023-03-08T13:29:35.107Z,26.80
2023-03-08T13:32:08.521Z,23.83
2023-03-08T13:34:36.170Z,24.37
2023-03-08T13:37:03.843Z,25.60
2023-03-08T13:39:32.721Z,24.80
2023-03-08T13:42:09.564Z,24.97
2023-03-08T13:44:37.517Z,24.57
2023-03-08T13:47:13.978Z,24.20
2023-03-08T13:49:45.508Z,25.73
2023-03-08T13:52:17.928Z,26.87
2023-03-08T13:54:48.255Z,26.37
2023-03-08T13:57:23.914Z,23.90
2023-03-08T13:59:53.491Z,26.97
2023-03-08T14:02:23.499Z,26.23
2023-03-08T14:04:51.480Z,26.17
2023-03-08T14:07:22.782Z,25.03
2023-03-08T14:09:50.348Z,26.50
2023-03-08T14:12:23.030Z,27.30
2023-03-08T14:14:53.465Z,27.80
2023-03-08T14:17:23.503Z,26.73
2023-03-08T14:19:56.086Z,27.07
2023-03-08T14:22:38.232Z,23.27
2023-03-08T14:25:07.883Z,24.13
2023-03-08T14:27:42.434Z,23.73
2023-03-08T14:30:15.723Z,27.30
2023-03-08T14:32:56.865Z,22.07
2023-03-08T14:35:27.650Z,21.03
2023-03-08T14:37:56.102Z,19.97
2023-03-08T14:40:32.573Z,21.43
2023-03-08T14:43:04.488Z,17.73
2023-03-08T14:45:36.219Z,16.80
2023-03-08T14:48:21.849Z,18.00
2023-03-08T14:50:55.459Z,17.63
2023-03-08T14:53:30.159Z,18.70
2023-03-08T14:55:58.295Z,18.63
2023-03-08T14:58:29.464Z,19.07
2023-03-08T15:01:00.814Z,17.10
2023-03-08T15:03:28.726Z,14.93
2023-03-08T15:05:57.461Z,14.43
2023-03-08T15:08:26.106Z,15.23
2023-03-08T15:10:53.937Z,14.67
2023-03-08T15:13:23.844Z,13.73
2023-03-08T15:15:52.806Z,12.17
2023-03-08T15:18:20.831Z,11.43
2023-03-08T15:20:50.586Z,11.57
2023-03-08T15:23:21.309Z,10.30
2023-03-08T15:25:49.147Z,11.73
2023-03-08T15:28:18.715Z,10.73
2023-03-08T15:30:46.519Z,11.13
2023-03-08T15:33:15.410Z,14.43
2023-03-08T15:35:43.254Z,12.35
2023-03-08T15:38:13.457Z,13.40
2023-03-08T15:40:41.356Z,13.20
2023-03-08T15:43:09.620Z,10.95
2023-03-08T15:45:37.760Z,12.80
2023-03-08T15:48:07.265Z,10.73
2023-03-08T15:50:36.446Z,8.48
2023-03-08T15:53:04.373Z,9.43
2023-03-08T15:55:32.139Z,10.18
2023-03-08T15:57:59.752Z,8.95
2023-03-08T16:00:27.698Z,10.43
2023-03-08T16:02:55.254Z,9.82
2023-03-08T16:05:25.112Z,7.20
2023-03-08T16:07:57.781Z,6.67
2023-03-08T16:10:25.305Z,6.38
2023-03-08T16:12:52.940Z,7.30
2023-03-08T16:15:21.116Z,9.97
2023-03-08T16:17:48.941Z,5.50
2023-03-08T16:20:17.066Z,7.10
2023-03-08T16:22:46.118Z,5.95
2023-03-08T16:25:15.781Z,5.33
2023-03-08T16:27:43.289Z,5.60
2023-03-08T16:30:12.659Z,6.23
2023-03-08T16:32:40.226Z,5.87
2023-03-08T16:35:08.141Z,5.87
2023-03-08T16:37:35.609Z,7.10
2023-03-08T16:40:04.884Z,6.80
2023-03-08T16:42:33.857Z,7.30
2023-03-08T16:45:01.750Z,6.80
2023-03-08T16:47:32.127Z,8.13
2023-03-08T16:50:00.486Z,10.90
2023-03-08T16:52:28.955Z,12.93
2023-03-08T16:54:57.523Z,10.48
2023-03-08T16:57:25.243Z,12.70
2023-03-08T16:59:54.066Z,11.97
2023-03-08T17:02:23.131Z,12.10
2023-03-08T17:04:50.960Z,11.20
2023-03-08T17:07:18.594Z,10.70
2023-03-08T17:09:46.409Z,8.20
2023-03-08T17:12:14.066Z,8.83
2023-03-08T17:14:43.992Z,6.88
2023-03-08T17:17:13.660Z,6.40
2023-03-08T17:19:41.298Z,7.10
2023-03-08T17:22:09.064Z,12.68
2023-03-08T17:24:36.635Z,6.97
2023-03-08T17:27:04.385Z,8.70
2023-03-08T17:29:31.859Z,10.30
2023-03-08T17:31:59.317Z,12.07
2023-03-08T17:34:28.407Z,15.47
2023-03-08T17:36:55.936Z,12.87
2023-03-08T17:39:23.371Z,13.80
2023-03-08T17:41:50.846Z,12.60
2023-03-08T17:44:18.296Z,9.63
2023-03-08T17:46:45.754Z,8.30
2023-03-08T17:49:13.960Z,8.77
2023-03-08T17:51:42.769Z,7.97
2023-03-08T17:54:11.740Z,10.20
2023-03-08T17:56:40.843Z,12.13
2023-03-08T17:59:08.515Z,10.83
2023-03-08T18:01:35.986Z,12.43
2023-03-08T18:04:05.463Z,10.30
2023-03-08T18:06:35.239Z,8.33
2023-03-08T18:09:07.052Z,8.63
2023-03-08T18:11:37.476Z,9.27
2023-03-08T18:14:05.670Z,9.00
2023-03-08T18:16:33.528Z,8.82
2023-03-08T18:19:02.247Z,8.65
2023-03-08T18:21:31.357Z,9.15
2023-03-08T18:23:59.116Z,10.77
2023-03-08T18:26:28.883Z,9.10
2023-03-08T18:28:56.433Z,8.88
2023-03-08T18:31:26.311Z,8.47
2023-03-08T18:33:55.317Z,10.40
2023-03-08T18:36:24.171Z,11.27
2023-03-08T18:38:52.087Z,12.63
2023-03-08T18:41:22.146Z,11.23
2023-03-08T18:43:51.335Z,9.80
2023-03-08T18:46:19.395Z,8.73
2023-03-08T18:48:50.634Z,7.47
2023-03-08T18:51:18.347Z,11.80
2023-03-08T18:53:45.824Z,10.00
2023-03-08T18:56:13.438Z,7.30
2023-03-08T18:58:41.284Z,10.52
2023-03-08T19:01:12.922Z,13.23
2023-03-08T19:03:41.224Z,12.67
2023-03-08T19:06:09.453Z,9.67
2023-03-08T19:08:37.276Z,8.50
2023-03-08T19:11:11.470Z,8.90
2023-03-08T19:13:39.010Z,11.83
2023-03-08T19:16:07.216Z,10.38
2023-03-08T19:18:36.129Z,12.70
2023-03-08T19:21:03.663Z,10.95
2023-03-08T19:23:31.138Z,11.87
2023-03-08T19:26:16.335Z,13.97
2023-03-08T19:28:43.830Z,10.63
2023-03-08T19:31:17.467Z,9.13
2023-03-08T19:33:49.651Z,12.80
2023-03-08T19:36:17.136Z,12.80
2023-03-08T19:38:44.636Z,14.33
2023-03-08T19:41:13.357Z,13.50
2023-03-08T19:43:41.032Z,12.35
2023-03-08T19:46:09.466Z,13.45
2023-03-08T19:48:37.569Z,11.93
2023-03-08T19:51:06.576Z,12.77
2023-03-08T19:53:34.069Z,16.50
2023-03-08T19:56:01.717Z,54.17
2023-03-08T19:58:29.235Z,11.47
2023-03-08T20:01:03.489Z,13.57
2023-03-08T20:03:31.122Z,10.95
2023-03-08T20:05:59.127Z,15.27
2023-03-08T20:08:27.977Z,15.35
2023-03-08T20:10:55.461Z,13.10
2023-03-08T20:13:23.314Z,10.83
2023-03-08T20:15:50.808Z,15.98
2023-03-08T20:18:18.291Z,17.48
2023-03-08T20:20:45.850Z,20.07
2023-03-08T20:23:13.572Z,16.23
2023-03-08T20:25:43.787Z,14.05
2023-03-08T20:28:11.378Z,12.63
2023-03-08T20:30:39.380Z,15.53
2023-03-08T20:33:07.058Z,16.45
2023-03-08T20:35:34.549Z,14.48
2023-03-08T20:38:02.092Z,13.07
2023-03-08T20:40:29.632Z,15.27
2023-03-08T20:42:58.591Z,24.55
2023-03-08T20:45:26.482Z,19.58
2023-03-08T20:47:54.733Z,23.35
2023-03-08T20:50:22.510Z,26.00
2023-03-08T20:52:49.999Z,16.52
2023-03-08T20:55:17.601Z,18.60
2023-03-08T20:57:45.589Z,30.10
2023-03-08T21:00:15.557Z,29.33
2023-03-08T21:02:43.141Z,37.03
2023-03-08T21:05:11.083Z,33.88
2023-03-08T21:07:38.561Z,43.13
2023-03-08T21:10:06.821Z,45.35
2023-03-08T21:12:34.301Z,44.63
2023-03-08T21:15:03.482Z,35.78
2023-03-08T21:17:36.694Z,18.63
2023-03-08T21:20:05.943Z,8.97
2023-03-08T21:22:33.579Z,31.60
2023-03-08T21:25:01.091Z,24.58
2023-03-08T21:27:28.572Z,8.77
2023-03-08T21:29:56.091Z,9.60
2023-03-08T21:32:24.526Z,9.73
2023-03-08T21:34:54.351Z,9.70
2023-03-08T21:37:21.798Z,8.23
2023-03-08T21:39:49.284Z,9.70
2023-03-08T21:42:16.772Z,7.53
2023-03-08T21:44:44.231Z,13.70
2023-03-08T21:47:11.695Z,14.57
2023-03-08T21:49:39.212Z,8.00
2023-03-08T21:52:08.022Z,8.33
2023-03-08T21:54:35.499Z,9.25
2023-03-08T21:57:02.998Z,11.77
2023-03-08T21:59:30.482Z,13.43
2023-03-08T22:01:58.793Z,9.25
2023-03-08T22:04:27.600Z,10.52
2023-03-08T22:06:55.597Z,10.70
2023-03-08T22:09:26.774Z,17.53
2023-03-08T22:11:54.478Z,20.55
2023-03-08T22:14:21.990Z,17.40
2023-03-08T22:16:49.481Z,19.87
2023-03-08T22:19:17.944Z,18.77
2023-03-08T22:21:45.438Z,13.93
2023-03-08T22:24:12.965Z,13.37
2023-03-08T22:26:41.791Z,10.10
2023-03-08T22:29:09.283Z,13.37
2023-03-08T22:31:36.843Z,13.50
2023-03-08T22:34:04.679Z,19.00
2023-03-08T22:36:32.131Z,23.17
2023-03-08T22:38:59.614Z,14.15
2023-03-08T22:41:28.539Z,12.10
2023-03-08T22:43:57.364Z,13.60
2023-03-08T22:46:26.939Z,9.23
2023-03-08T22:48:56.555Z,6.87
2023-03-08T22:51:24.527Z,9.95
2023-03-08T22:53:52.419Z,15.43
2023-03-08T22:56:22.717Z,5.67
2023-03-08T22:58:50.644Z,6.05
2023-03-08T23:01:21.452Z,5.32
2023-03-08T23:03:49.786Z,7.25
2023-03-08T23:06:18.265Z,9.85
2023-03-08T23:08:46.240Z,20.58
2023-03-08T23:11:14.226Z,31.13
2023-03-08T23:13:42.201Z,28.83
2023-03-08T23:16:12.512Z,26.43
2023-03-08T23:18:41.425Z,26.35
2023-03-08T23:21:10.872Z,16.90
2023-03-08T23:23:38.383Z,15.63
2023-03-08T23:26:07.374Z,11.63
2023-03-08T23:28:36.346Z,20.20
2023-03-08T23:31:08.701Z,21.33
2023-03-08T23:33:36.170Z,8.33
2023-03-08T23:36:05.917Z,7.43
2023-03-08T23:38:33.475Z,8.20
2023-03-08T23:41:04.618Z,6.50
2023-03-08T23:43:32.177Z,6.53
2023-03-08T23:45:59.859Z,7.37
2023-03-08T23:48:27.354Z,6.43
2023-03-08T23:50:54.803Z,7.93
2023-03-08T23:53:23.637Z,6.10
2023-03-08T23:55:51.115Z,6.13
2023-03-08T23:58:18.609Z,6.80
